createdAt,value
2023-02-23T00:02:59.857Z,0.00
2023-02-23T00:15:00.222Z,0.56
2023-02-23T00:27:00.701Z,1.23
2023-02-23T00:39:01.147Z,0.00
2023-02-23T00:51:01.610Z,0.00
2023-02-23T01:03:02.023Z,0.00
2023-02-23T01:15:02.510Z,0.00
2023-02-23T01:27:02.982Z,0.00
2023-02-23T01:39:03.410Z,0.00
2023-02-23T01:51:03.852Z,0.00
2023-02-23T02:03:04.286Z,0.00
2023-02-23T02:15:04.813Z,0.54
2023-02-23T02:27:05.236Z,0.00
2023-02-23T02:39:05.671Z,0.30
2023-02-23T02:51:06.137Z,0.00
2023-02-23T03:03:06.596Z,0.07
2023-02-23T03:15:07.013Z,0.03
2023-02-23T03:27:07.519Z,0.18
2023-02-23T03:39:07.925Z,0.00
2023-02-23T03:51:08.410Z,0.00
2023-02-23T04:03:08.821Z,0.00
2023-02-23T04:15:09.304Z,0.00
2023-02-23T04:27:09.725Z,0.00
2023-02-23T04:39:10.237Z,0.31
2023-02-23T04:51:10.642Z,0.21
2023-02-23T05:03:11.104Z,0.24
2023-02-23T05:15:11.535Z,0.16
2023-02-23T05:27:12.005Z,0.03
2023-02-23T05:39:12.766Z,0.05
2023-02-23T05:51:12.927Z,0.08
2023-02-23T06:03:13.357Z,0.16
2023-02-23T06:15:13.831Z,0.00
2023-02-23T06:27:14.254Z,0.00
2023-02-23T06:39:14.736Z,0.56
2023-02-23T06:51:15.107Z,0.68
2023-02-23T07:03:15.639Z,0.95
2023-02-23T07:15:16.060Z,0.03
2023-02-23T07:27:16.488Z,0.05
2023-02-23T07:39:16.977Z,1.16
2023-02-23T07:51:17.798Z,0.45
2023-02-23T08:03:17.885Z,0.16
2023-02-23T08:15:18.346Z,0.10
2023-02-23T08:27:18.783Z,0.22
2023-02-23T08:39:19.210Z,0.02
2023-02-23T08:51:19.996Z,0.00
2023-02-23T09:03:20.146Z,0.18
2023-02-23T09:15:20.581Z,0.21
2023-02-23T09:27:21.054Z,0.08
2023-02-23T09:39:32.330Z,1.03
2023-02-23T09:51:22.166Z,1.45
2023-02-23T10:03:22.380Z,2.06
2023-02-23T10:15:22.867Z,2.18
2023-02-23T10:27:23.282Z,1.98
2023-02-23T10:39:24.347Z,1.65
2023-02-23T10:51:24.203Z,1.72
2023-02-23T11:03:25.410Z,2.65
2023-02-23T11:15:35.705Z,2.21
2023-02-23T11:27:25.648Z,2.42
2023-02-23T11:39:26.003Z,3.25
2023-02-23T11:51:26.504Z,1.48
2023-02-23T12:03:26.891Z,2.18
2023-02-23T12:15:27.412Z,1.76
2023-02-23T12:27:27.891Z,2.12
2023-02-23T12:39:28.327Z,1.82
2023-02-23T12:51:28.728Z,2.13
2023-02-23T13:03:29.202Z,1.26
2023-02-23T13:15:29.629Z,1.73
2023-02-23T13:27:30.618Z,0.94
2023-02-23T13:39:30.563Z,0.76
2023-02-23T13:51:31.016Z,0.48
2023-02-23T14:03:31.463Z,0.90
2023-02-23T14:15:31.936Z,0.73
2023-02-23T14:27:41.084Z,1.17
2023-02-23T14:39:32.829Z,1.56
2023-02-23T14:51:33.384Z,1.22
2023-02-23T15:03:33.780Z,2.11
2023-02-23T15:15:34.188Z,0.68
2023-02-23T15:27:34.684Z,1.18
2023-02-23T15:39:35.081Z,1.09
2023-02-23T15:51:35.595Z,0.39
2023-02-23T16:03:36.032Z,1.22
2023-02-23T16:15:36.486Z,0.74
2023-02-23T16:27:36.922Z,0.45
2023-02-23T16:39:37.391Z,1.89
2023-02-23T16:51:37.811Z,1.47
2023-02-23T17:03:47.405Z,1.22
2023-02-23T17:15:38.713Z,1.97
2023-02-23T17:27:39.242Z,1.10
2023-02-23T17:39:39.605Z,0.43
2023-02-23T17:51:40.080Z,1.05
2023-02-23T18:03:40.577Z,1.55
2023-02-23T18:15:41.018Z,0.61
2023-02-23T18:27:41.426Z,0.80
2023-02-23T18:39:41.900Z,1.66
2023-02-23T18:51:43.373Z,1.43
2023-02-23T19:03:42.806Z,1.87
2023-02-23T19:15:43.260Z,1.01
2023-02-23T19:27:43.698Z,0.60
2023-02-23T19:39:44.168Z,3.32
2023-02-23T19:51:44.617Z,2.40
2023-02-23T20:03:45.081Z,1.60
2023-02-23T20:15:45.534Z,0.19
2023-02-23T20:27:45.975Z,1.12
2023-02-23T20:39:46.433Z,0.58
2023-02-23T20:51:46.894Z,0.18
2023-02-23T21:03:47.371Z,0.30
2023-02-23T21:15:47.776Z,0.01
2023-02-23T21:27:48.263Z,0.00
2023-02-23T21:39:48.698Z,0.00
2023-02-23T21:51:49.114Z,0.00
2023-02-23T22:03:49.613Z,0.28
2023-02-23T22:15:50.121Z,0.07
2023-02-23T22:27:50.532Z,0.00
2023-02-23T22:39:50.972Z,0.01
2023-02-23T22:51:51.390Z,0.80
2023-02-23T23:03:51.929Z,2.18
2023-02-23T23:15:55.211Z,1.60
2023-02-23T23:27:52.776Z,1.86
2023-02-23T23:39:53.197Z,2.06
2023-02-23T23:51:53.709Z,2.11
